createdAt,value
2019-02-16T00:02:25.730Z,98.50
2019-02-16T00:05:29.240Z,98.90
2019-02-16T00:08:32.663Z,99.30
2019-02-16T00:11:36.090Z,99.60
2019-02-16T00:14:39.508Z,99.80
2019-02-16T00:17:42.941Z,99.90
2019-02-16T00:20:46.347Z,99.90
2019-02-16T00:23:49.776Z,99.90
2019-02-16T00:26:53.182Z,99.50
2019-02-16T00:29:56.624Z,99.50
2019-02-16T00:33:00.025Z,99.40
2019-02-16T00:36:03.538Z,99.90
2019-02-16T00:39:07.111Z,99.90
2019-02-16T00:42:10.540Z,99.90
2019-02-16T00:45:13.971Z,99.90
2019-02-16T00:48:17.380Z,99.90
2019-02-16T00:51:20.808Z,99.90
2019-02-16T00:54:24.220Z,99.90
2019-02-16T00:57:27.656Z,99.90
2019-02-16T01:00:31.084Z,99.90
2019-02-16T01:03:34.513Z,99.90
2019-02-16T01:06:37.920Z,99.90
2019-02-16T01:09:41.348Z,99.90
2019-02-16T01:12:44.755Z,99.90
2019-02-16T01:15:48.188Z,99.90
2019-02-16T01:18:51.600Z,99.90
2019-02-16T01:21:55.028Z,99.90
2019-02-16T01:24:58.459Z,99.90
2019-02-16T01:28:01.892Z,99.90
2019-02-16T01:31:05.304Z,99.90
2019-02-16T01:34:08.745Z,99.90
2019-02-16T01:37:12.167Z,99.90
2019-02-16T01:40:15.595Z,99.90
2019-02-16T01:43:18.995Z,99.90
2019-02-16T01:46:22.425Z,99.90
2019-02-16T01:49:25.843Z,99.90
2019-02-16T01:52:29.272Z,99.90
2019-02-16T01:55:32.697Z,99.90
2019-02-16T01:58:36.133Z,99.90
2019-02-16T02:01:39.554Z,99.90
2019-02-16T02:04:42.988Z,99.90
2019-02-16T02:07:46.400Z,99.90
2019-02-16T02:10:49.837Z,99.90
2019-02-16T02:13:53.336Z,99.90
2019-02-16T02:16:56.743Z,99.70
2019-02-16T02:20:00.340Z,99.50
2019-02-16T02:23:03.904Z,98.90
2019-02-16T02:26:07.313Z,98.90
2019-02-16T02:29:10.755Z,99.20
2019-02-16T02:32:14.197Z,99.10
2019-02-16T02:35:17.720Z,99.10
2019-02-16T02:38:21.170Z,99.20
2019-02-16T02:41:24.572Z,98.90
2019-02-16T02:44:28.023Z,99.20
2019-02-16T02:47:31.462Z,99.00
2019-02-16T02:50:34.905Z,98.60
2019-02-16T02:53:38.404Z,98.80
2019-02-16T02:56:41.828Z,98.30
2019-02-16T02:59:45.244Z,98.20
2019-02-16T03:02:48.680Z,97.90
2019-02-16T03:05:52.112Z,97.50
2019-02-16T03:08:55.543Z,97.50
2019-02-16T03:11:58.976Z,96.30
2019-02-16T03:15:02.428Z,96.20
2019-02-16T03:18:05.868Z,96.20
2019-02-16T03:21:09.289Z,95.90
2019-02-16T03:24:12.743Z,95.60
2019-02-16T03:27:19.226Z,95.30
2019-02-16T03:30:37.674Z,95.10
2019-02-16T03:33:44.170Z,95.00
2019-02-16T03:37:02.905Z,94.60
2019-02-16T03:40:08.858Z,94.80
2019-02-16T03:43:12.320Z,95.10
2019-02-16T03:46:15.778Z,94.80
2019-02-16T03:49:19.237Z,94.80
2019-02-16T03:52:22.666Z,94.50
2019-02-16T03:55:26.082Z,94.10
2019-02-16T03:58:29.495Z,93.60
2019-02-16T04:01:32.936Z,93.60
2019-02-16T04:04:36.339Z,94.00
2019-02-16T04:07:39.774Z,93.20
2019-02-16T04:10:43.199Z,93.50
2019-02-16T04:13:46.633Z,93.30
2019-02-16T04:16:50.041Z,93.40
2019-02-16T04:19:53.477Z,93.70
2019-02-16T04:22:56.896Z,93.50
2019-02-16T04:26:00.329Z,93.00
2019-02-16T04:29:03.755Z,92.80
2019-02-16T04:32:07.195Z,92.20
2019-02-16T04:35:10.616Z,91.70
2019-02-16T04:38:14.028Z,91.20
2019-02-16T04:41:17.467Z,91.20
2019-02-16T04:44:20.873Z,91.40
2019-02-16T04:47:24.317Z,91.30
2019-02-16T04:50:27.733Z,91.40
2019-02-16T04:53:31.158Z,91.30
2019-02-16T04:56:34.588Z,90.90
2019-02-16T04:59:38.039Z,91.00
2019-02-16T05:02:41.534Z,90.70
2019-02-16T05:05:44.996Z,90.80
2019-02-16T05:08:48.398Z,91.20
2019-02-16T05:11:51.825Z,91.40
2019-02-16T05:14:55.273Z,90.90
2019-02-16T05:17:58.696Z,91.30
2019-02-16T05:21:02.129Z,91.30
2019-02-16T05:24:05.539Z,91.10
2019-02-16T05:27:08.984Z,91.30
2019-02-16T05:30:12.375Z,91.20
2019-02-16T05:33:15.829Z,91.10
2019-02-16T05:36:19.255Z,91.20
2019-02-16T05:39:22.714Z,91.60
2019-02-16T05:42:26.124Z,91.10
2019-02-16T05:45:29.549Z,91.20
2019-02-16T05:48:33.003Z,91.70
2019-02-16T05:51:36.451Z,91.70
2019-02-16T05:54:39.862Z,91.70
2019-02-16T05:57:43.288Z,91.80
2019-02-16T06:00:46.738Z,91.90
2019-02-16T06:03:50.147Z,92.10
2019-02-16T06:06:53.608Z,92.50
2019-02-16T06:09:57.081Z,92.10
2019-02-16T06:13:00.512Z,92.20
2019-02-16T06:16:03.952Z,92.30
2019-02-16T06:19:07.386Z,92.60
2019-02-16T06:22:10.804Z,92.80
2019-02-16T06:25:14.232Z,93.20
2019-02-16T06:28:17.650Z,93.40
2019-02-16T06:31:21.082Z,93.70
2019-02-16T06:34:24.493Z,93.80
2019-02-16T06:37:27.909Z,93.70
2019-02-16T06:40:31.341Z,93.60
2019-02-16T06:43:34.772Z,93.50
2019-02-16T06:46:38.197Z,93.80
2019-02-16T06:49:41.623Z,93.50
2019-02-16T06:52:45.047Z,93.30
2019-02-16T06:55:52.926Z,91.30
2019-02-16T06:58:56.357Z,85.20
2019-02-16T07:01:59.773Z,76.50
2019-02-16T07:05:03.195Z,67.60
2019-02-16T07:08:06.638Z,61.50
2019-02-16T07:11:10.044Z,56.30
2019-02-16T07:14:13.477Z,52.70
2019-02-16T07:17:33.591Z,48.90
2019-02-16T07:20:37.066Z,47.20
2019-02-16T07:23:40.500Z,45.10
2019-02-16T07:26:43.986Z,44.10
2019-02-16T07:29:47.427Z,42.90
2019-02-16T07:32:50.849Z,42.30
2019-02-16T07:35:54.268Z,42.20
2019-02-16T07:38:57.709Z,42.10
2019-02-16T07:42:01.199Z,41.90
2019-02-16T07:45:15.603Z,41.70
2019-02-16T07:48:26.716Z,41.30
2019-02-16T07:51:44.152Z,40.80
2019-02-16T07:54:58.096Z,41.20
2019-02-16T07:58:09.416Z,40.00
2019-02-16T08:01:29.143Z,39.70
2019-02-16T08:04:46.143Z,39.60
2019-02-16T08:07:51.220Z,39.40
2019-02-16T08:10:57.176Z,40.00
2019-02-16T08:14:02.248Z,39.20
2019-02-16T08:17:07.329Z,38.40
2019-02-16T08:20:21.649Z,38.30
2019-02-16T08:23:40.138Z,38.20
2019-02-16T08:26:51.679Z,38.40
2019-02-16T08:29:56.768Z,38.40
2019-02-16T08:33:01.820Z,38.70
2019-02-16T08:36:12.715Z,39.00
2019-02-16T08:39:17.762Z,38.50
2019-02-16T08:42:38.244Z,39.20
2019-02-16T08:45:49.280Z,39.40
2019-02-16T08:49:00.015Z,40.00
2019-02-16T08:52:11.076Z,40.70
2019-02-16T08:55:16.119Z,40.70
2019-02-16T08:58:26.939Z,41.40
2019-02-16T09:01:31.997Z,42.40
2019-02-16T09:04:43.012Z,43.30
2019-02-16T09:07:48.089Z,43.80
2019-02-16T09:11:09.500Z,45.00
2019-02-16T09:14:17.525Z,46.40
2019-02-16T09:17:34.600Z,46.90
2019-02-16T09:20:42.396Z,49.10
2019-02-16T09:23:59.219Z,49.90
2019-02-16T09:27:12.245Z,51.20
2019-02-16T09:30:17.318Z,51.80
2019-02-16T09:33:25.247Z,53.10
2019-02-16T09:36:33.441Z,54.50
2019-02-16T09:39:44.564Z,55.10
2019-02-16T09:42:52.583Z,56.00
2019-02-16T09:46:03.127Z,57.20
2019-02-16T09:49:08.224Z,55.30
2019-02-16T09:52:15.991Z,54.90
2019-02-16T09:55:23.696Z,53.90
2019-02-16T09:58:28.782Z,54.10
2019-02-16T10:01:50.350Z,54.80
2019-02-16T10:04:57.883Z,53.60
2019-02-16T10:08:14.804Z,52.50
2019-02-16T10:11:19.929Z,53.00
2019-02-16T10:14:39.991Z,51.90
2019-02-16T10:17:53.769Z,50.70
2019-02-16T10:21:11.093Z,52.80
2019-02-16T10:24:28.408Z,52.30
2019-02-16T10:27:33.480Z,51.90
2019-02-16T10:30:38.537Z,51.60
2019-02-16T10:33:46.535Z,50.40
2019-02-16T10:37:06.632Z,49.90
2019-02-16T10:40:11.704Z,50.20
2019-02-16T10:43:29.056Z,49.70
2019-02-16T10:46:36.668Z,49.60
2019-02-16T10:49:41.744Z,49.00
2019-02-16T10:52:46.820Z,49.10
2019-02-16T10:55:54.764Z,49.70
2019-02-16T10:59:18.495Z,49.30
2019-02-16T11:02:29.012Z,48.90
2019-02-16T11:05:52.232Z,50.00
2019-02-16T11:09:00.175Z,49.20
2019-02-16T11:12:08.257Z,50.00
2019-02-16T11:15:30.661Z,51.00
2019-02-16T11:18:35.728Z,50.70
2019-02-16T11:21:50.017Z,50.90
2019-02-16T11:25:07.012Z,51.30
2019-02-16T11:28:17.988Z,52.30
2019-02-16T11:31:39.431Z,52.00
2019-02-16T11:35:01.187Z,52.40
2019-02-16T11:38:09.400Z,52.00
2019-02-16T11:41:18.884Z,51.10
2019-02-16T11:44:21.275Z,51.50
2019-02-16T11:47:29.212Z,52.40
2019-02-16T11:50:49.420Z,52.50
2019-02-16T11:53:54.458Z,53.70
2019-02-16T11:56:59.534Z,53.00
2019-02-16T12:00:14.338Z,53.20
2019-02-16T12:03:19.400Z,52.80
2019-02-16T12:06:40.975Z,53.50
2019-02-16T12:09:49.000Z,52.50
2019-02-16T12:13:05.736Z,52.80
2019-02-16T12:16:25.756Z,52.70
2019-02-16T12:19:37.062Z,53.20
2019-02-16T12:22:44.904Z,53.40
2019-02-16T12:26:01.712Z,53.10
2019-02-16T12:29:22.123Z,53.90
2019-02-16T12:32:29.724Z,54.30
2019-02-16T12:35:34.799Z,55.20
2019-02-16T12:38:48.713Z,55.70
2019-02-16T12:42:10.484Z,55.50
2019-02-16T12:45:24.783Z,56.40
2019-02-16T12:48:29.863Z,56.20
2019-02-16T12:51:34.940Z,56.40
2019-02-16T12:54:43.219Z,56.50
2019-02-16T12:57:48.296Z,55.30
2019-02-16T13:00:53.372Z,55.40
2019-02-16T13:04:04.176Z,56.00
2019-02-16T13:07:12.363Z,55.10
2019-02-16T13:10:26.702Z,54.70
2019-02-16T13:13:50.397Z,55.10
2019-02-16T13:17:04.180Z,54.70
2019-02-16T13:20:13.223Z,54.50
2019-02-16T13:23:30.547Z,54.90
2019-02-16T13:26:51.812Z,55.00
2019-02-16T13:30:02.910Z,54.80
2019-02-16T13:33:08.799Z,54.70
2019-02-16T13:36:22.591Z,54.60
2019-02-16T13:39:36.664Z,54.50
2019-02-16T13:42:58.183Z,55.60
2019-02-16T13:46:03.233Z,55.00
2019-02-16T13:49:17.102Z,54.10
2019-02-16T13:52:38.618Z,54.20
2019-02-16T13:55:49.672Z,54.10
2019-02-16T13:58:54.748Z,54.20
2019-02-16T14:01:59.817Z,54.60
2019-02-16T14:05:05.644Z,55.00
2019-02-16T14:08:16.787Z,56.10
2019-02-16T14:11:24.595Z,55.70
2019-02-16T14:14:32.628Z,56.20
2019-02-16T14:17:43.380Z,56.90
2019-02-16T14:20:46.831Z,56.30
2019-02-16T14:23:50.232Z,57.20
2019-02-16T14:26:53.668Z,57.40
2019-02-16T14:29:57.100Z,57.30
2019-02-16T14:33:00.537Z,57.10
2019-02-16T14:36:04.000Z,57.10
2019-02-16T14:39:15.136Z,57.00
2019-02-16T14:42:18.581Z,56.80
2019-02-16T14:45:22.059Z,56.90
2019-02-16T14:48:25.513Z,57.60
2019-02-16T14:51:28.986Z,57.90
2019-02-16T14:54:32.423Z,57.90
2019-02-16T14:57:35.879Z,57.60
2019-02-16T15:00:39.283Z,58.20
2019-02-16T15:03:42.712Z,57.40
2019-02-16T15:06:46.150Z,57.30
2019-02-16T15:09:49.584Z,57.20
2019-02-16T15:12:53.020Z,58.00
2019-02-16T15:15:56.452Z,58.50
2019-02-16T15:18:59.882Z,59.20
2019-02-16T15:22:03.309Z,60.20
2019-02-16T15:25:10.700Z,59.70
2019-02-16T15:28:14.395Z,60.10
2019-02-16T15:31:17.841Z,60.40
2019-02-16T15:34:21.323Z,60.50
2019-02-16T15:37:24.825Z,60.40
2019-02-16T15:40:28.263Z,60.60
2019-02-16T15:43:44.044Z,61.30
2019-02-16T15:46:47.479Z,62.40
2019-02-16T15:49:51.008Z,63.40
2019-02-16T15:52:54.420Z,64.20
2019-02-16T15:55:59.840Z,64.90
2019-02-16T15:59:03.267Z,65.90
2019-02-16T16:02:25.671Z,64.80
2019-02-16T16:05:29.103Z,64.90
2019-02-16T16:08:34.192Z,65.20
2019-02-16T16:11:39.353Z,66.50
2019-02-16T16:14:44.443Z,67.80
2019-02-16T16:17:52.471Z,68.30
2019-02-16T16:20:57.552Z,68.90
2019-02-16T16:24:19.260Z,70.50
2019-02-16T16:27:30.493Z,71.00
2019-02-16T16:30:44.281Z,72.00
2019-02-16T16:34:01.257Z,72.70
2019-02-16T16:37:22.967Z,74.60
2019-02-16T16:40:34.157Z,77.40
2019-02-16T16:43:48.110Z,77.80
2019-02-16T16:46:53.307Z,80.30
2019-02-16T16:49:58.775Z,82.20
2019-02-16T16:53:09.708Z,83.70
2019-02-16T16:56:15.107Z,85.20
2019-02-16T16:59:29.013Z,86.20
2019-02-16T17:02:50.597Z,86.80
2019-02-16T17:05:58.675Z,87.90
2019-02-16T17:09:03.839Z,88.60
2019-02-16T17:12:18.129Z,90.00
2019-02-16T17:15:23.353Z,90.80
2019-02-16T17:18:37.700Z,91.40
2019-02-16T17:21:45.619Z,91.60
2019-02-16T17:24:59.387Z,91.80
2019-02-16T17:28:06.860Z,92.40
2019-02-16T17:31:11.949Z,92.90
2019-02-16T17:34:35.080Z,93.30
2019-02-16T17:37:56.663Z,94.00
2019-02-16T17:41:18.061Z,94.50
2019-02-16T17:44:23.173Z,95.40
2019-02-16T17:47:40.444Z,96.20
2019-02-16T17:50:51.775Z,97.40
2019-02-16T17:54:08.110Z,98.10
2019-02-16T17:57:09.611Z,98.90
2019-02-16T18:00:27.108Z,99.30
2019-02-16T18:03:48.903Z,99.90
2019-02-16T18:07:00.288Z,99.90
2019-02-16T18:10:08.991Z,99.90
2019-02-16T18:13:14.089Z,99.90
2019-02-16T18:16:19.141Z,99.90
2019-02-16T18:19:27.183Z,99.90
2019-02-16T18:22:32.245Z,99.90
2019-02-16T18:25:43.217Z,99.90
2019-02-16T18:28:58.110Z,99.90
2019-02-16T18:32:14.093Z,99.90
2019-02-16T18:35:40.301Z,99.90
2019-02-16T18:38:48.867Z,99.80
2019-02-16T18:42:09.069Z,99.40
2019-02-16T18:45:14.524Z,99.20
2019-02-16T18:48:22.636Z,99.20
2019-02-16T18:51:30.472Z,98.90
2019-02-16T18:54:35.525Z,99.30
2019-02-16T18:57:57.440Z,99.50
2019-02-16T19:01:11.518Z,99.90
2019-02-16T19:04:31.689Z,99.90
2019-02-16T19:07:42.528Z,99.90
2019-02-16T19:10:56.576Z,99.90
2019-02-16T19:14:01.692Z,99.90
2019-02-16T19:17:18.829Z,99.90
2019-02-16T19:20:42.689Z,99.90
2019-02-16T19:23:51.252Z,99.90
2019-02-16T19:26:56.309Z,99.90
2019-02-16T19:30:07.320Z,99.90
2019-02-16T19:33:18.416Z,99.90
2019-02-16T19:36:26.460Z,99.90
2019-02-16T19:39:37.385Z,99.90
2019-02-16T19:42:45.445Z,99.90
2019-02-16T19:45:56.417Z,99.90
2019-02-16T19:49:05.200Z,99.90
2019-02-16T19:52:16.416Z,99.90
2019-02-16T19:55:24.425Z,99.90
2019-02-16T19:58:45.787Z,99.90
2019-02-16T20:01:59.879Z,99.90
2019-02-16T20:05:05.246Z,99.90
2019-02-16T20:08:15.969Z,99.90
2019-02-16T20:11:37.689Z,99.90
2019-02-16T20:14:42.795Z,99.90
2019-02-16T20:17:48.001Z,99.90
2019-02-16T20:20:59.083Z,99.90
2019-02-16T20:24:04.273Z,99.90
2019-02-16T20:27:09.371Z,99.90
2019-02-16T20:30:29.532Z,99.90
2019-02-16T20:33:37.452Z,99.90
2019-02-16T20:36:42.517Z,99.90
2019-02-16T20:39:53.332Z,99.90
2019-02-16T20:42:58.401Z,99.90
2019-02-16T20:46:03.475Z,99.90
2019-02-16T20:49:17.500Z,99.90
2019-02-16T20:52:22.555Z,99.90
2019-02-16T20:55:27.624Z,99.90
2019-02-16T20:58:41.545Z,99.90
2019-02-16T21:01:49.299Z,99.90
2019-02-16T21:04:54.390Z,99.90
2019-02-16T21:08:15.760Z,99.90
2019-02-16T21:11:29.805Z,99.90
2019-02-16T21:14:34.881Z,99.90
2019-02-16T21:17:52.023Z,99.90
2019-02-16T21:20:59.869Z,99.90
2019-02-16T21:24:16.972Z,99.90
2019-02-16T21:27:31.003Z,99.90
2019-02-16T21:30:54.398Z,99.90
2019-02-16T21:34:05.700Z,99.90
2019-02-16T21:37:16.476Z,99.90
2019-02-16T21:40:33.697Z,99.90
2019-02-16T21:43:38.845Z,99.90
2019-02-16T21:46:43.894Z,99.90
2019-02-16T21:50:07.540Z,99.90
2019-02-16T21:53:21.143Z,99.90
2019-02-16T21:56:25.352Z,99.90
2019-02-16T21:59:42.248Z,99.90
2019-02-16T22:02:59.589Z,99.90
2019-02-16T22:06:13.152Z,99.90
2019-02-16T22:09:20.844Z,99.90
2019-02-16T22:12:25.935Z,99.90
2019-02-16T22:15:29.345Z,99.90
2019-02-16T22:18:32.784Z,99.90
2019-02-16T22:21:36.198Z,99.90
2019-02-16T22:24:39.633Z,99.90
2019-02-16T22:27:43.072Z,99.90
2019-02-16T22:30:46.493Z,99.90
2019-02-16T22:33:49.951Z,99.90
2019-02-16T22:36:53.368Z,99.90
2019-02-16T22:39:56.815Z,99.90
2019-02-16T22:43:00.283Z,99.90
2019-02-16T22:46:03.712Z,99.90
2019-02-16T22:49:07.151Z,99.90
2019-02-16T22:52:10.571Z,99.90
2019-02-16T22:55:13.997Z,99.90
2019-02-16T22:58:17.432Z,99.90
2019-02-16T23:01:21.327Z,99.90
2019-02-16T23:04:24.740Z,99.90
2019-02-16T23:07:28.185Z,99.90
2019-02-16T23:10:31.685Z,99.90
2019-02-16T23:13:35.200Z,99.90
2019-02-16T23:16:38.621Z,99.90
2019-02-16T23:19:42.040Z,99.90
2019-02-16T23:22:45.473Z,99.90
2019-02-16T23:25:48.904Z,99.90
2019-02-16T23:28:52.320Z,99.90
2019-02-16T23:31:55.758Z,99.90
2019-02-16T23:34:59.169Z,99.90
2019-02-16T23:38:02.607Z,99.90
2019-02-16T23:41:06.542Z,99.90
2019-02-16T23:44:10.044Z,99.90
2019-02-16T23:47:13.480Z,99.90
2019-02-16T23:50:16.889Z,99.90
2019-02-16T23:53:20.335Z,99.90
2019-02-16T23:56:23.763Z,99.90
2019-02-16T23:59:27.208Z,99.90
